sensor_id;sensor_type;location;lat;lon;timestamp;P1;durP1;ratioP1;P2;durP2;ratioP2
58083;SDS011;43882;51.550;11.858;2024-01-10T00:01:45;39.28;;;16.52;;
58083;SDS011;43882;51.550;11.858;2024-01-10T00:04:11;41.72;;;15.95;;
58083;SDS011;43882;51.550;11.858;2024-01-10T00:06:37;40.58;;;14.70;;
58083;SDS011;43882;51.550;11.858;2024-01-10T00:09:03;32.60;;;13.52;;
58083;SDS011;43882;51.550;11.858;2024-01-10T00:11:29;38.92;;;15.05;;
58083;SDS011;43882;51.550;11.858;2024-01-10T00:13:55;38.08;;;17.20;;
58083;SDS011;43882;51.550;11.858;2024-01-10T00:16:25;41.83;;;15.82;;
58083;SDS011;43882;51.550;11.858;2024-01-10T00:18:51;34.80;;;15.23;;
58083;SDS011;43882;51.550;11.858;2024-01-10T00:21:17;40.13;;;16.73;;
58083;SDS011;43882;51.550;11.858;2024-01-10T00:23:43;41.20;;;16.05;;
58083;SDS011;43882;51.550;11.858;2024-01-10T00:26:09;39.05;;;16.38;;
58083;SDS011;43882;51.550;11.858;2024-01-10T00:28:36;36.35;;;15.98;;
58083;SDS011;43882;51.550;11.858;2024-01-10T00:31:02;36.63;;;15.73;;
58083;SDS011;43882;51.550;11.858;2024-01-10T00:33:28;36.53;;;14.40;;
58083;SDS011;43882;51.550;11.858;2024-01-10T00:35:54;37.97;;;15.32;;
58083;SDS011;43882;51.550;11.858;2024-01-10T00:38:20;41.40;;;15.43;;
58083;SDS011;43882;51.550;11.858;2024-01-10T00:40:46;39.30;;;15.27;;
58083;SDS011;43882;51.550;11.858;2024-01-10T00:43:15;40.13;;;15.57;;
58083;SDS011;43882;51.550;11.858;2024-01-10T00:45:41;41.17;;;17.00;;
58083;SDS011;43882;51.550;11.858;2024-01-10T00:48:07;30.88;;;13.98;;
58083;SDS011;43882;51.550;11.858;2024-01-10T00:50:33;39.90;;;15.25;;
58083;SDS011;43882;51.550;11.858;2024-01-10T00:52:59;38.25;;;14.45;;
58083;SDS011;43882;51.550;11.858;2024-01-10T00:55:25;41.30;;;15.35;;
58083;SDS011;43882;51.550;11.858;2024-01-10T00:57:51;41.63;;;15.88;;
58083;SDS011;43882;51.550;11.858;2024-01-10T01:00:17;41.42;;;14.95;;
58083;SDS011;43882;51.550;11.858;2024-01-10T01:02:44;33.65;;;15.07;;
58083;SDS011;43882;51.550;11.858;2024-01-10T01:05:10;43.03;;;16.92;;
58083;SDS011;43882;51.550;11.858;2024-01-10T01:07:36;41.55;;;16.58;;
58083;SDS011;43882;51.550;11.858;2024-01-10T01:10:02;41.13;;;15.00;;
58083;SDS011;43882;51.550;11.858;2024-01-10T01:12:28;39.67;;;18.17;;
58083;SDS011;43882;51.550;11.858;2024-01-10T01:14:55;37.65;;;15.32;;
58083;SDS011;43882;51.550;11.858;2024-01-10T01:17:21;37.08;;;15.20;;
58083;SDS011;43882;51.550;11.858;2024-01-10T01:19:47;44.72;;;17.70;;
58083;SDS011;43882;51.550;11.858;2024-01-10T01:22:13;44.97;;;17.08;;
58083;SDS011;43882;51.550;11.858;2024-01-10T01:24:39;41.20;;;15.55;;
58083;SDS011;43882;51.550;11.858;2024-01-10T01:27:05;40.05;;;15.50;;
58083;SDS011;43882;51.550;11.858;2024-01-10T01:29:31;39.55;;;17.00;;
58083;SDS011;43882;51.550;11.858;2024-01-10T01:31:57;37.17;;;15.02;;
58083;SDS011;43882;51.550;11.858;2024-01-10T01:34:23;40.47;;;16.83;;
58083;SDS011;43882;51.550;11.858;2024-01-10T01:36:49;44.63;;;16.73;;
58083;SDS011;43882;51.550;11.858;2024-01-10T01:39:16;37.58;;;15.77;;
58083;SDS011;43882;51.550;11.858;2024-01-10T01:41:43;43.22;;;16.02;;
58083;SDS011;43882;51.550;11.858;2024-01-10T01:44:09;42.03;;;16.48;;
58083;SDS011;43882;51.550;11.858;2024-01-10T01:46:35;42.22;;;15.85;;
58083;SDS011;43882;51.550;11.858;2024-01-10T01:49:01;39.10;;;14.40;;
58083;SDS011;43882;51.550;11.858;2024-01-10T01:51:28;41.88;;;15.32;;
58083;SDS011;43882;51.550;11.858;2024-01-10T01:53:55;37.10;;;16.17;;
58083;SDS011;43882;51.550;11.858;2024-01-10T01:56:21;41.45;;;15.95;;
58083;SDS011;43882;51.550;11.858;2024-01-10T01:58:47;39.92;;;16.95;;
58083;SDS011;43882;51.550;11.858;2024-01-10T02:01:16;45.78;;;17.77;;
58083;SDS011;43882;51.550;11.858;2024-01-10T02:03:42;39.70;;;15.70;;
58083;SDS011;43882;51.550;11.858;2024-01-10T02:06:09;37.28;;;15.40;;
58083;SDS011;43882;51.550;11.858;2024-01-10T02:08:35;47.20;;;16.95;;
58083;SDS011;43882;51.550;11.858;2024-01-10T02:11:02;38.17;;;14.73;;
58083;SDS011;43882;51.550;11.858;2024-01-10T02:13:28;38.92;;;14.15;;
58083;SDS011;43882;51.550;11.858;2024-01-10T02:15:55;42.58;;;16.13;;
58083;SDS011;43882;51.550;11.858;2024-01-10T02:18:21;34.85;;;13.85;;
58083;SDS011;43882;51.550;11.858;2024-01-10T02:20:47;43.90;;;15.38;;
58083;SDS011;43882;51.550;11.858;2024-01-10T02:23:14;34.45;;;14.80;;
58083;SDS011;43882;51.550;11.858;2024-01-10T02:25:40;40.70;;;16.25;;
58083;SDS011;43882;51.550;11.858;2024-01-10T02:28:07;37.92;;;15.70;;
58083;SDS011;43882;51.550;11.858;2024-01-10T02:30:34;42.88;;;15.93;;
58083;SDS011;43882;51.550;11.858;2024-01-10T02:33:00;43.67;;;15.90;;
58083;SDS011;43882;51.550;11.858;2024-01-10T02:35:27;42.95;;;16.58;;
58083;SDS011;43882;51.550;11.858;2024-01-10T02:37:53;40.25;;;15.25;;
58083;SDS011;43882;51.550;11.858;2024-01-10T02:40:22;44.30;;;17.42;;
58083;SDS011;43882;51.550;11.858;2024-01-10T02:42:48;41.83;;;15.95;;
58083;SDS011;43882;51.550;11.858;2024-01-10T02:45:16;42.72;;;16.92;;
58083;SDS011;43882;51.550;11.858;2024-01-10T02:47:42;42.35;;;18.08;;
58083;SDS011;43882;51.550;11.858;2024-01-10T02:50:08;42.97;;;16.27;;
58083;SDS011;43882;51.550;11.858;2024-01-10T02:52:34;46.25;;;18.80;;
58083;SDS011;43882;51.550;11.858;2024-01-10T02:55:00;43.30;;;16.77;;
58083;SDS011;43882;51.550;11.858;2024-01-10T02:57:26;39.67;;;16.30;;
58083;SDS011;43882;51.550;11.858;2024-01-10T02:59:52;44.22;;;17.30;;
58083;SDS011;43882;51.550;11.858;2024-01-10T03:02:19;47.65;;;17.90;;
58083;SDS011;43882;51.550;11.858;2024-01-10T03:04:45;44.05;;;17.60;;
58083;SDS011;43882;51.550;11.858;2024-01-10T03:07:11;44.20;;;16.45;;
58083;SDS011;43882;51.550;11.858;2024-01-10T03:09:37;40.67;;;14.95;;
58083;SDS011;43882;51.550;11.858;2024-01-10T03:12:03;45.00;;;17.00;;
58083;SDS011;43882;51.550;11.858;2024-01-10T03:14:29;44.65;;;17.65;;
58083;SDS011;43882;51.550;11.858;2024-01-10T03:16:55;45.83;;;18.20;;
58083;SDS011;43882;51.550;11.858;2024-01-10T03:19:21;42.50;;;17.33;;
58083;SDS011;43882;51.550;11.858;2024-01-10T03:21:47;51.90;;;18.35;;
58083;SDS011;43882;51.550;11.858;2024-01-10T03:24:13;42.13;;;17.80;;
58083;SDS011;43882;51.550;11.858;2024-01-10T03:26:39;45.13;;;16.65;;
58083;SDS011;43882;51.550;11.858;2024-01-10T03:29:05;48.13;;;17.08;;
58083;SDS011;43882;51.550;11.858;2024-01-10T03:31:32;41.25;;;16.45;;
58083;SDS011;43882;51.550;11.858;2024-01-10T03:33:58;43.40;;;16.23;;
58083;SDS011;43882;51.550;11.858;2024-01-10T03:36:24;42.63;;;17.02;;
58083;SDS011;43882;51.550;11.858;2024-01-10T03:38:50;39.10;;;16.05;;
58083;SDS011;43882;51.550;11.858;2024-01-10T03:41:19;36.05;;;15.23;;
58083;SDS011;43882;51.550;11.858;2024-01-10T03:43:46;39.20;;;16.38;;
58083;SDS011;43882;51.550;11.858;2024-01-10T03:46:12;47.83;;;17.33;;
58083;SDS011;43882;51.550;11.858;2024-01-10T03:48:39;47.05;;;18.48;;
58083;SDS011;43882;51.550;11.858;2024-01-10T03:51:12;46.30;;;17.73;;
58083;SDS011;43882;51.550;11.858;2024-01-10T03:53:42;37.70;;;17.98;;
58083;SDS011;43882;51.550;11.858;2024-01-10T03:56:08;46.63;;;17.42;;
58083;SDS011;43882;51.550;11.858;2024-01-10T03:58:35;46.85;;;17.83;;
58083;SDS011;43882;51.550;11.858;2024-01-10T04:01:05;39.90;;;15.60;;
58083;SDS011;43882;51.550;11.858;2024-01-10T04:03:31;43.50;;;16.83;;
58083;SDS011;43882;51.550;11.858;2024-01-10T04:05:58;46.92;;;17.45;;
58083;SDS011;43882;51.550;11.858;2024-01-10T04:08:24;59.25;;;19.83;;
58083;SDS011;43882;51.550;11.858;2024-01-10T04:10:50;43.13;;;16.58;;
58083;SDS011;43882;51.550;11.858;2024-01-10T04:13:16;40.10;;;16.05;;
58083;SDS011;43882;51.550;11.858;2024-01-10T04:15:42;48.72;;;19.35;;
58083;SDS011;43882;51.550;11.858;2024-01-10T04:18:08;43.88;;;16.30;;
58083;SDS011;43882;51.550;11.858;2024-01-10T04:20:34;41.80;;;18.23;;
58083;SDS011;43882;51.550;11.858;2024-01-10T04:23:00;49.30;;;18.00;;
58083;SDS011;43882;51.550;11.858;2024-01-10T04:25:26;44.83;;;17.92;;
58083;SDS011;43882;51.550;11.858;2024-01-10T04:27:52;44.92;;;15.43;;
58083;SDS011;43882;51.550;11.858;2024-01-10T04:30:18;44.28;;;15.77;;
58083;SDS011;43882;51.550;11.858;2024-01-10T04:32:44;49.00;;;17.73;;
58083;SDS011;43882;51.550;11.858;2024-01-10T04:35:10;47.22;;;17.95;;
58083;SDS011;43882;51.550;11.858;2024-01-10T04:37:37;38.65;;;16.08;;
58083;SDS011;43882;51.550;11.858;2024-01-10T04:40:03;41.03;;;16.50;;
58083;SDS011;43882;51.550;11.858;2024-01-10T04:42:30;47.65;;;17.40;;
58083;SDS011;43882;51.550;11.858;2024-01-10T04:44:56;51.58;;;18.00;;
58083;SDS011;43882;51.550;11.858;2024-01-10T04:47:22;45.83;;;18.90;;
58083;SDS011;43882;51.550;11.858;2024-01-10T04:49:48;50.15;;;18.98;;
58083;SDS011;43882;51.550;11.858;2024-01-10T04:52:14;46.40;;;18.83;;
58083;SDS011;43882;51.550;11.858;2024-01-10T04:54:40;40.17;;;18.05;;
58083;SDS011;43882;51.550;11.858;2024-01-10T04:57:06;52.38;;;20.00;;
58083;SDS011;43882;51.550;11.858;2024-01-10T04:59:33;48.70;;;19.02;;
58083;SDS011;43882;51.550;11.858;2024-01-10T05:01:59;39.15;;;17.95;;
58083;SDS011;43882;51.550;11.858;2024-01-10T05:04:25;50.13;;;19.77;;
58083;SDS011;43882;51.550;11.858;2024-01-10T05:06:51;49.92;;;19.17;;
58083;SDS011;43882;51.550;11.858;2024-01-10T05:09:17;44.15;;;19.70;;
58083;SDS011;43882;51.550;11.858;2024-01-10T05:11:43;49.08;;;20.08;;
58083;SDS011;43882;51.550;11.858;2024-01-10T05:14:15;46.75;;;19.65;;
58083;SDS011;43882;51.550;11.858;2024-01-10T05:16:44;45.10;;;18.55;;
58083;SDS011;43882;51.550;11.858;2024-01-10T05:19:10;41.65;;;16.88;;
58083;SDS011;43882;51.550;11.858;2024-01-10T05:21:36;40.92;;;16.33;;
58083;SDS011;43882;51.550;11.858;2024-01-10T05:24:03;50.20;;;17.88;;
58083;SDS011;43882;51.550;11.858;2024-01-10T05:26:29;46.00;;;18.58;;
58083;SDS011;43882;51.550;11.858;2024-01-10T05:28:55;47.20;;;17.65;;
58083;SDS011;43882;51.550;11.858;2024-01-10T05:31:21;45.22;;;18.98;;
58083;SDS011;43882;51.550;11.858;2024-01-10T05:33:47;41.65;;;18.25;;
58083;SDS011;43882;51.550;11.858;2024-01-10T05:36:13;40.40;;;16.63;;
58083;SDS011;43882;51.550;11.858;2024-01-10T05:38:39;44.78;;;17.38;;
58083;SDS011;43882;51.550;11.858;2024-01-10T05:41:06;39.58;;;17.42;;
58083;SDS011;43882;51.550;11.858;2024-01-10T05:43:32;40.10;;;16.42;;
58083;SDS011;43882;51.550;11.858;2024-01-10T05:45:59;42.60;;;16.55;;
58083;SDS011;43882;51.550;11.858;2024-01-10T05:48:25;46.35;;;18.48;;
58083;SDS011;43882;51.550;11.858;2024-01-10T05:50:51;43.42;;;17.42;;
58083;SDS011;43882;51.550;11.858;2024-01-10T05:53:17;37.92;;;17.95;;
58083;SDS011;43882;51.550;11.858;2024-01-10T05:55:43;38.38;;;17.17;;
58083;SDS011;43882;51.550;11.858;2024-01-10T05:58:10;47.58;;;19.52;;
58083;SDS011;43882;51.550;11.858;2024-01-10T06:00:36;41.80;;;15.93;;
58083;SDS011;43882;51.550;11.858;2024-01-10T06:03:02;46.30;;;17.10;;
58083;SDS011;43882;51.550;11.858;2024-01-10T06:05:29;47.45;;;18.67;;
58083;SDS011;43882;51.550;11.858;2024-01-10T06:07:56;42.17;;;17.55;;
58083;SDS011;43882;51.550;11.858;2024-01-10T06:10:23;51.10;;;19.08;;
58083;SDS011;43882;51.550;11.858;2024-01-10T06:12:49;52.15;;;18.08;;
58083;SDS011;43882;51.550;11.858;2024-01-10T06:15:15;41.85;;;17.90;;
58083;SDS011;43882;51.550;11.858;2024-01-10T06:17:41;45.65;;;18.60;;
58083;SDS011;43882;51.550;11.858;2024-01-10T06:20:08;48.22;;;18.75;;
58083;SDS011;43882;51.550;11.858;2024-01-10T06:22:34;51.88;;;18.98;;
58083;SDS011;43882;51.550;11.858;2024-01-10T06:25:00;50.33;;;18.25;;
58083;SDS011;43882;51.550;11.858;2024-01-10T06:27:26;51.13;;;19.55;;
58083;SDS011;43882;51.550;11.858;2024-01-10T06:29:53;53.58;;;19.90;;
58083;SDS011;43882;51.550;11.858;2024-01-10T06:32:19;50.08;;;19.98;;
58083;SDS011;43882;51.550;11.858;2024-01-10T06:34:45;47.05;;;19.17;;
58083;SDS011;43882;51.550;11.858;2024-01-10T06:37:11;44.10;;;18.45;;
58083;SDS011;43882;51.550;11.858;2024-01-10T06:39:37;42.75;;;17.85;;
58083;SDS011;43882;51.550;11.858;2024-01-10T06:42:03;42.90;;;18.88;;
58083;SDS011;43882;51.550;11.858;2024-01-10T06:44:31;47.53;;;19.00;;
58083;SDS011;43882;51.550;11.858;2024-01-10T06:46:57;51.90;;;18.20;;
58083;SDS011;43882;51.550;11.858;2024-01-10T06:49:23;48.88;;;19.25;;
58083;SDS011;43882;51.550;11.858;2024-01-10T06:51:49;42.53;;;16.83;;
58083;SDS011;43882;51.550;11.858;2024-01-10T06:54:15;48.40;;;19.00;;
58083;SDS011;43882;51.550;11.858;2024-01-10T06:56:43;39.38;;;15.73;;
58083;SDS011;43882;51.550;11.858;2024-01-10T06:59:09;55.35;;;19.58;;
58083;SDS011;43882;51.550;11.858;2024-01-10T07:01:35;44.70;;;18.85;;
58083;SDS011;43882;51.550;11.858;2024-01-10T07:04:02;46.20;;;20.25;;
58083;SDS011;43882;51.550;11.858;2024-01-10T07:06:29;43.88;;;20.30;;
58083;SDS011;43882;51.550;11.858;2024-01-10T07:08:55;53.28;;;22.85;;
58083;SDS011;43882;51.550;11.858;2024-01-10T07:11:23;44.08;;;18.75;;
58083;SDS011;43882;51.550;11.858;2024-01-10T07:13:49;42.47;;;17.60;;
58083;SDS011;43882;51.550;11.858;2024-01-10T07:16:15;47.50;;;18.80;;
58083;SDS011;43882;51.550;11.858;2024-01-10T07:18:42;48.03;;;19.75;;
58083;SDS011;43882;51.550;11.858;2024-01-10T07:21:09;41.58;;;18.17;;
58083;SDS011;43882;51.550;11.858;2024-01-10T07:23:35;53.15;;;19.83;;
58083;SDS011;43882;51.550;11.858;2024-01-10T07:26:05;55.70;;;22.70;;
58083;SDS011;43882;51.550;11.858;2024-01-10T07:28:31;51.47;;;18.90;;
58083;SDS011;43882;51.550;11.858;2024-01-10T07:30:57;54.00;;;21.52;;
58083;SDS011;43882;51.550;11.858;2024-01-10T07:33:25;58.03;;;21.70;;
58083;SDS011;43882;51.550;11.858;2024-01-10T07:35:51;48.50;;;21.00;;
58083;SDS011;43882;51.550;11.858;2024-01-10T07:38:19;50.78;;;20.58;;
58083;SDS011;43882;51.550;11.858;2024-01-10T07:40:46;46.40;;;18.58;;
58083;SDS011;43882;51.550;11.858;2024-01-10T07:43:12;49.47;;;20.38;;
58083;SDS011;43882;51.550;11.858;2024-01-10T07:45:38;63.92;;;22.83;;
58083;SDS011;43882;51.550;11.858;2024-01-10T07:48:04;53.30;;;21.60;;
58083;SDS011;43882;51.550;11.858;2024-01-10T07:50:30;50.55;;;21.50;;
58083;SDS011;43882;51.550;11.858;2024-01-10T07:52:56;60.40;;;22.15;;
58083;SDS011;43882;51.550;11.858;2024-01-10T07:55:23;52.97;;;22.42;;
58083;SDS011;43882;51.550;11.858;2024-01-10T07:57:49;53.10;;;21.27;;
58083;SDS011;43882;51.550;11.858;2024-01-10T08:00:15;58.35;;;22.77;;
58083;SDS011;43882;51.550;11.858;2024-01-10T08:02:41;56.65;;;20.65;;
58083;SDS011;43882;51.550;11.858;2024-01-10T08:05:07;59.15;;;20.80;;
58083;SDS011;43882;51.550;11.858;2024-01-10T08:07:34;58.85;;;22.85;;
58083;SDS011;43882;51.550;11.858;2024-01-10T08:10:03;55.30;;;22.40;;
58083;SDS011;43882;51.550;11.858;2024-01-10T08:12:33;48.92;;;21.38;;
58083;SDS011;43882;51.550;11.858;2024-01-10T08:14:59;50.42;;;21.65;;
58083;SDS011;43882;51.550;11.858;2024-01-10T08:17:25;52.40;;;22.00;;
58083;SDS011;43882;51.550;11.858;2024-01-10T08:19:51;59.72;;;22.15;;
58083;SDS011;43882;51.550;11.858;2024-01-10T08:22:18;57.55;;;23.83;;
58083;SDS011;43882;51.550;11.858;2024-01-10T08:24:45;54.45;;;22.88;;
58083;SDS011;43882;51.550;11.858;2024-01-10T08:27:11;55.35;;;23.00;;
58083;SDS011;43882;51.550;11.858;2024-01-10T08:29:37;54.42;;;23.30;;
58083;SDS011;43882;51.550;11.858;2024-01-10T08:32:03;53.83;;;23.52;;
58083;SDS011;43882;51.550;11.858;2024-01-10T08:34:30;57.42;;;23.15;;
58083;SDS011;43882;51.550;11.858;2024-01-10T08:36:56;53.25;;;21.42;;
58083;SDS011;43882;51.550;11.858;2024-01-10T08:39:22;53.88;;;22.20;;
58083;SDS011;43882;51.550;11.858;2024-01-10T08:41:50;58.80;;;21.30;;
58083;SDS011;43882;51.550;11.858;2024-01-10T08:44:17;57.63;;;22.55;;
58083;SDS011;43882;51.550;11.858;2024-01-10T08:46:43;55.15;;;22.77;;
58083;SDS011;43882;51.550;11.858;2024-01-10T08:49:09;57.80;;;23.92;;
58083;SDS011;43882;51.550;11.858;2024-01-10T08:51:35;56.20;;;21.50;;
58083;SDS011;43882;51.550;11.858;2024-01-10T08:54:01;62.28;;;23.02;;
58083;SDS011;43882;51.550;11.858;2024-01-10T08:56:28;56.55;;;21.38;;
58083;SDS011;43882;51.550;11.858;2024-01-10T08:58:54;55.22;;;22.17;;
58083;SDS011;43882;51.550;11.858;2024-01-10T09:01:21;57.58;;;22.33;;
58083;SDS011;43882;51.550;11.858;2024-01-10T09:03:48;49.67;;;22.33;;
58083;SDS011;43882;51.550;11.858;2024-01-10T09:06:14;61.58;;;25.48;;
58083;SDS011;43882;51.550;11.858;2024-01-10T09:08:40;59.17;;;25.27;;
58083;SDS011;43882;51.550;11.858;2024-01-10T09:11:06;60.47;;;24.15;;
58083;SDS011;43882;51.550;11.858;2024-01-10T09:13:32;58.22;;;23.88;;
58083;SDS011;43882;51.550;11.858;2024-01-10T09:15:59;60.05;;;23.63;;
58083;SDS011;43882;51.550;11.858;2024-01-10T09:18:25;54.75;;;22.88;;
58083;SDS011;43882;51.550;11.858;2024-01-10T09:20:52;56.08;;;22.45;;
58083;SDS011;43882;51.550;11.858;2024-01-10T09:23:18;56.20;;;21.83;;
58083;SDS011;43882;51.550;11.858;2024-01-10T09:25:44;53.58;;;25.27;;
58083;SDS011;43882;51.550;11.858;2024-01-10T09:28:10;53.67;;;23.90;;
58083;SDS011;43882;51.550;11.858;2024-01-10T09:30:37;59.78;;;25.02;;
58083;SDS011;43882;51.550;11.858;2024-01-10T09:33:04;54.20;;;22.30;;
58083;SDS011;43882;51.550;11.858;2024-01-10T09:35:30;53.45;;;25.15;;
58083;SDS011;43882;51.550;11.858;2024-01-10T09:37:56;52.17;;;22.40;;
58083;SDS011;43882;51.550;11.858;2024-01-10T09:40:22;51.25;;;22.95;;
58083;SDS011;43882;51.550;11.858;2024-01-10T09:42:52;50.25;;;23.27;;
58083;SDS011;43882;51.550;11.858;2024-01-10T09:45:21;51.92;;;21.98;;
58083;SDS011;43882;51.550;11.858;2024-01-10T09:47:49;55.58;;;22.75;;
58083;SDS011;43882;51.550;11.858;2024-01-10T09:50:20;53.55;;;22.55;;
58083;SDS011;43882;51.550;11.858;2024-01-10T09:52:50;62.15;;;26.13;;
58083;SDS011;43882;51.550;11.858;2024-01-10T09:55:18;51.85;;;22.77;;
58083;SDS011;43882;51.550;11.858;2024-01-10T09:57:46;52.45;;;23.33;;
58083;SDS011;43882;51.550;11.858;2024-01-10T10:00:12;58.13;;;23.48;;
58083;SDS011;43882;51.550;11.858;2024-01-10T10:02:41;55.53;;;22.60;;
58083;SDS011;43882;51.550;11.858;2024-01-10T10:05:08;57.78;;;23.08;;
58083;SDS011;43882;51.550;11.858;2024-01-10T10:07:49;56.97;;;23.30;;
58083;SDS011;43882;51.550;11.858;2024-01-10T10:10:16;58.85;;;24.58;;
58083;SDS011;43882;51.550;11.858;2024-01-10T10:12:46;50.92;;;23.33;;
58083;SDS011;43882;51.550;11.858;2024-01-10T10:15:13;60.28;;;24.48;;
58083;SDS011;43882;51.550;11.858;2024-01-10T10:17:44;50.80;;;22.08;;
58083;SDS011;43882;51.550;11.858;2024-01-10T10:20:20;57.33;;;24.45;;
58083;SDS011;43882;51.550;11.858;2024-01-10T10:22:57;56.10;;;24.50;;
58083;SDS011;43882;51.550;11.858;2024-01-10T10:25:27;57.05;;;24.35;;
58083;SDS011;43882;51.550;11.858;2024-01-10T10:28:01;60.08;;;24.58;;
58083;SDS011;43882;51.550;11.858;2024-01-10T10:30:28;57.63;;;25.27;;
58083;SDS011;43882;51.550;11.858;2024-01-10T10:32:56;58.28;;;23.90;;
58083;SDS011;43882;51.550;11.858;2024-01-10T10:35:22;54.63;;;24.52;;
58083;SDS011;43882;51.550;11.858;2024-01-10T10:37:49;56.83;;;24.85;;
58083;SDS011;43882;51.550;11.858;2024-01-10T10:40:16;61.88;;;25.42;;
58083;SDS011;43882;51.550;11.858;2024-01-10T10:42:46;58.13;;;24.45;;
58083;SDS011;43882;51.550;11.858;2024-01-10T10:45:14;56.50;;;25.42;;
58083;SDS011;43882;51.550;11.858;2024-01-10T10:47:45;55.60;;;25.58;;
58083;SDS011;43882;51.550;11.858;2024-01-10T10:50:19;65.22;;;26.60;;
58083;SDS011;43882;51.550;11.858;2024-01-10T10:52:47;62.65;;;26.55;;
58083;SDS011;43882;51.550;11.858;2024-01-10T10:55:18;63.50;;;25.33;;
58083;SDS011;43882;51.550;11.858;2024-01-10T10:57:45;61.92;;;26.88;;
58083;SDS011;43882;51.550;11.858;2024-01-10T11:00:15;60.63;;;25.63;;
58083;SDS011;43882;51.550;11.858;2024-01-10T11:02:45;64.68;;;26.95;;
58083;SDS011;43882;51.550;11.858;2024-01-10T11:05:12;64.40;;;25.25;;
58083;SDS011;43882;51.550;11.858;2024-01-10T11:07:39;56.78;;;25.30;;
58083;SDS011;43882;51.550;11.858;2024-01-10T11:10:11;57.40;;;26.52;;
58083;SDS011;43882;51.550;11.858;2024-01-10T11:12:56;65.47;;;29.43;;
58083;SDS011;43882;51.550;11.858;2024-01-10T11:15:47;65.97;;;30.23;;
58083;SDS011;43882;51.550;11.858;2024-01-10T11:21:17;57.35;;;24.90;;
58083;SDS011;43882;51.550;11.858;2024-01-10T11:23:48;55.25;;;24.35;;
58083;SDS011;43882;51.550;11.858;2024-01-10T11:26:16;60.30;;;26.58;;
58083;SDS011;43882;51.550;11.858;2024-01-10T11:28:44;57.88;;;26.35;;
58083;SDS011;43882;51.550;11.858;2024-01-10T11:31:10;60.25;;;27.08;;
58083;SDS011;43882;51.550;11.858;2024-01-10T11:33:40;62.22;;;26.92;;
58083;SDS011;43882;51.550;11.858;2024-01-10T11:38:47;61.90;;;27.02;;
58083;SDS011;43882;51.550;11.858;2024-01-10T11:44:32;60.72;;;27.40;;
58083;SDS011;43882;51.550;11.858;2024-01-10T11:49:12;60.92;;;24.25;;
58083;SDS011;43882;51.550;11.858;2024-01-10T11:51:47;60.95;;;25.02;;
58083;SDS011;43882;51.550;11.858;2024-01-10T11:57:02;66.20;;;25.10;;
58083;SDS011;43882;51.550;11.858;2024-01-10T11:59:45;59.92;;;25.63;;
58083;SDS011;43882;51.550;11.858;2024-01-10T12:02:13;56.85;;;25.90;;
58083;SDS011;43882;51.550;11.858;2024-01-10T12:04:39;62.03;;;25.23;;
58083;SDS011;43882;51.550;11.858;2024-01-10T12:07:07;57.67;;;24.13;;
58083;SDS011;43882;51.550;11.858;2024-01-10T12:09:33;57.08;;;25.92;;
58083;SDS011;43882;51.550;11.858;2024-01-10T12:12:01;58.45;;;24.95;;
58083;SDS011;43882;51.550;11.858;2024-01-10T12:14:27;61.88;;;26.52;;
58083;SDS011;43882;51.550;11.858;2024-01-10T12:16:54;64.68;;;26.08;;
58083;SDS011;43882;51.550;11.858;2024-01-10T12:19:20;58.80;;;26.60;;
58083;SDS011;43882;51.550;11.858;2024-01-10T12:21:46;59.03;;;27.55;;
58083;SDS011;43882;51.550;11.858;2024-01-10T12:24:13;59.22;;;26.42;;
58083;SDS011;43882;51.550;11.858;2024-01-10T12:26:45;58.15;;;25.17;;
58083;SDS011;43882;51.550;11.858;2024-01-10T12:29:12;67.75;;;26.40;;
58083;SDS011;43882;51.550;11.858;2024-01-10T12:31:38;60.80;;;27.13;;
58083;SDS011;43882;51.550;11.858;2024-01-10T12:34:06;59.13;;;27.13;;
58083;SDS011;43882;51.550;11.858;2024-01-10T12:36:35;59.70;;;25.48;;
58083;SDS011;43882;51.550;11.858;2024-01-10T12:39:01;54.85;;;24.70;;
58083;SDS011;43882;51.550;11.858;2024-01-10T12:41:29;59.72;;;25.70;;
58083;SDS011;43882;51.550;11.858;2024-01-10T12:43:55;55.60;;;25.70;;
58083;SDS011;43882;51.550;11.858;2024-01-10T12:46:22;61.80;;;26.25;;
58083;SDS011;43882;51.550;11.858;2024-01-10T12:48:57;58.90;;;27.25;;
58083;SDS011;43882;51.550;11.858;2024-01-10T12:51:25;59.88;;;25.45;;
58083;SDS011;43882;51.550;11.858;2024-01-10T12:53:51;56.58;;;25.42;;
58083;SDS011;43882;51.550;11.858;2024-01-10T12:56:18;65.07;;;29.23;;
58083;SDS011;43882;51.550;11.858;2024-01-10T12:58:44;64.63;;;27.83;;
58083;SDS011;43882;51.550;11.858;2024-01-10T13:01:10;59.95;;;28.73;;
58083;SDS011;43882;51.550;11.858;2024-01-10T13:03:40;61.40;;;27.00;;
58083;SDS011;43882;51.550;11.858;2024-01-10T13:06:06;57.75;;;25.58;;
58083;SDS011;43882;51.550;11.858;2024-01-10T13:08:32;53.17;;;27.23;;
58083;SDS011;43882;51.550;11.858;2024-01-10T13:10:58;61.72;;;26.58;;
58083;SDS011;43882;51.550;11.858;2024-01-10T13:13:25;54.45;;;24.42;;
58083;SDS011;43882;51.550;11.858;2024-01-10T13:15:51;65.30;;;29.02;;
58083;SDS011;43882;51.550;11.858;2024-01-10T13:18:17;64.57;;;28.58;;
58083;SDS011;43882;51.550;11.858;2024-01-10T13:20:44;65.28;;;29.00;;
58083;SDS011;43882;51.550;11.858;2024-01-10T13:23:10;64.05;;;27.85;;
58083;SDS011;43882;51.550;11.858;2024-01-10T13:25:36;66.47;;;28.08;;
58083;SDS011;43882;51.550;11.858;2024-01-10T13:28:03;57.97;;;26.58;;
58083;SDS011;43882;51.550;11.858;2024-01-10T13:30:30;61.17;;;26.42;;
58083;SDS011;43882;51.550;11.858;2024-01-10T13:32:56;62.38;;;27.10;;
58083;SDS011;43882;51.550;11.858;2024-01-10T13:35:23;61.42;;;26.98;;
58083;SDS011;43882;51.550;11.858;2024-01-10T13:37:49;53.42;;;26.20;;
58083;SDS011;43882;51.550;11.858;2024-01-10T13:40:15;62.47;;;24.73;;
58083;SDS011;43882;51.550;11.858;2024-01-10T13:42:42;58.80;;;26.42;;
58083;SDS011;43882;51.550;11.858;2024-01-10T13:45:09;63.63;;;26.90;;
58083;SDS011;43882;51.550;11.858;2024-01-10T13:47:38;61.78;;;27.38;;
58083;SDS011;43882;51.550;11.858;2024-01-10T13:50:08;56.20;;;24.73;;
58083;SDS011;43882;51.550;11.858;2024-01-10T13:52:34;60.70;;;25.27;;
58083;SDS011;43882;51.550;11.858;2024-01-10T13:55:01;57.30;;;25.83;;
58083;SDS011;43882;51.550;11.858;2024-01-10T13:57:29;58.33;;;25.80;;
58083;SDS011;43882;51.550;11.858;2024-01-10T13:59:57;62.70;;;27.40;;
58083;SDS011;43882;51.550;11.858;2024-01-10T14:02:24;62.10;;;25.67;;
58083;SDS011;43882;51.550;11.858;2024-01-10T14:04:50;54.67;;;25.55;;
58083;SDS011;43882;51.550;11.858;2024-01-10T14:07:18;56.15;;;23.95;;
58083;SDS011;43882;51.550;11.858;2024-01-10T14:09:44;54.33;;;25.58;;
58083;SDS011;43882;51.550;11.858;2024-01-10T14:12:11;55.38;;;25.90;;
58083;SDS011;43882;51.550;11.858;2024-01-10T14:14:37;55.70;;;25.42;;
58083;SDS011;43882;51.550;11.858;2024-01-10T14:17:03;56.92;;;25.42;;
58083;SDS011;43882;51.550;11.858;2024-01-10T14:19:30;59.53;;;26.05;;
58083;SDS011;43882;51.550;11.858;2024-01-10T14:21:56;63.35;;;27.23;;